Time;durP1;ratioP1;P1;durP2;ratioP2;P2;SDS_P1;SDS_P2;PMS_P1;PMS_P2;Temp;Humidity;BMP_temperature;BMP_pressure;BME280_temperature;BME280_humidity;BME280_pressure;Samples;Min_cycle;Max_cycle;Signal;HPM_P1;HPM_P2
2024/01/22 00:01:30;;;;;;;17.23;15.73;;;;;;;-4.38;73.11;96621.63;5135475;28;20195;-68
2024/01/22 00:03:58;;;;;;;17.83;16.30;;;;;;;-4.33;73.56;96618.25;5134860;27;20195;-68
2024/01/22 00:06:25;;;;;;;18.35;16.65;;;;;;;-4.31;73.40;96622.38;5139338;27;20183;-68
2024/01/22 00:08:52;;;;;;;18.08;16.67;;;;;;;-4.36;73.03;96622.19;5138608;27;20706;-68
2024/01/22 00:11:19;;;;;;;17.48;15.98;;;;;;;-4.33;73.49;96631.72;5138788;27;20218;-69
2024/01/22 00:13:46;;;;;;;16.58;15.18;;;;;;;-4.44;72.81;96627.88;5139186;27;20191;-68
2024/01/22 00:16:15;;;;;;;17.83;16.33;;;;;;;-4.37;74.08;96629.47;5139746;27;20251;-68
2024/01/22 00:18:42;;;;;;;18.38;16.85;;;;;;;-4.32;73.85;96627.97;5138804;27;20195;-68
2024/01/22 00:21:10;;;;;;;19.02;17.42;;;;;;;-4.26;73.73;96638.69;5139334;27;20614;-68
2024/01/22 00:23:37;;;;;;;18.45;16.85;;;;;;;-4.26;72.84;96638.69;5139621;27;20247;-69
2024/01/22 00:26:04;;;;;;;18.35;16.85;;;;;;;-4.29;73.41;96638.31;5139526;27;20179;-69
2024/01/22 00:28:31;;;;;;;18.83;17.23;;;;;;;-4.23;73.53;96640.94;5139438;27;20287;-69
2024/01/22 00:30:58;;;;;;;19.30;17.63;;;;;;;-4.18;73.00;96634.88;5139339;27;20211;-69
2024/01/22 00:33:25;;;;;;;22.65;20.73;;;;;;;-4.20;73.29;96634.31;5138462;27;20218;-69
2024/01/22 00:35:52;;;;;;;19.13;17.45;;;;;;;-4.18;73.08;96635.72;5139451;27;20191;-69
2024/01/22 00:38:20;;;;;;;20.33;18.63;;;;;;;-4.19;72.51;96631.38;5138626;27;20199;-69
2024/01/22 00:40:47;;;;;;;19.67;17.88;;;;;;;-4.25;72.45;96634.97;5138933;27;20263;-69
2024/01/22 00:43:14;;;;;;;20.17;18.48;;;;;;;-4.29;72.61;96633.75;5137974;27;20619;-69
2024/01/22 00:45:42;;;;;;;19.83;18.17;;;;;;;-4.26;72.87;96629.78;5139204;27;20235;-69
2024/01/22 00:48:08;;;;;;;19.65;17.92;;;;;;;-4.27;72.85;96626.28;5138207;27;20191;-69
2024/01/22 00:50:35;;;;;;;19.88;18.13;;;;;;;-4.30;72.79;96624.03;5137743;27;20223;-68
2024/01/22 00:53:02;;;;;;;18.27;16.77;;;;;;;-4.30;72.75;96615.94;5137788;27;20254;-68
2024/01/22 00:55:31;;;;;;;17.58;16.10;;;;;;;-4.29;72.80;96614.88;5138675;27;20219;-68
2024/01/22 00:57:59;;;;;;;17.60;16.13;;;;;;;-4.29;72.80;96612.19;5137763;27;20248;-69
2024/01/22 01:00:26;;;;;;;17.40;15.90;;;;;;;-4.32;73.46;96612.66;5138829;27;20206;-69
2024/01/22 01:02:53;;;;;;;18.35;16.83;;;;;;;-4.31;73.03;96614.31;5137871;27;20199;-69
2024/01/22 01:05:20;;;;;;;17.83;16.25;;;;;;;-4.30;72.96;96612.44;5139325;27;20240;-69
2024/01/22 01:07:47;;;;;;;17.95;16.55;;;;;;;-4.28;73.17;96608.47;5137980;27;20195;-69
2024/01/22 01:10:14;;;;;;;19.35;17.65;;;;;;;-4.24;73.44;96606.97;5138423;27;20626;-68
2024/01/22 01:12:43;;;;;;;18.23;16.83;;;;;;;-4.22;72.81;96607.56;5137696;27;20542;-68
2024/01/22 01:15:10;;;;;;;18.90;17.25;;;;;;;-4.29;72.74;96606.81;5138853;27;20253;-68
2024/01/22 01:17:37;;;;;;;18.33;16.70;;;;;;;-4.32;73.27;96607.28;5138706;27;20191;-68
2024/01/22 01:20:05;;;;;;;17.15;15.70;;;;;;;-4.36;72.86;96604.19;5137574;27;20243;-68
2024/01/22 01:22:33;;;;;;;16.88;15.27;;;;;;;-4.41;73.20;96605.88;5138618;27;20187;-68
2024/01/22 01:25:00;;;;;;;17.30;15.88;;;;;;;-4.45;72.77;96600.13;5137968;27;20528;-68
2024/01/22 01:27:27;;;;;;;17.15;15.73;;;;;;;-4.36;73.92;96600.66;5137723;27;20203;-68
2024/01/22 01:29:55;;;;;;;16.45;15.15;;;;;;;-4.33;73.74;96602.09;5138119;27;20270;-68
2024/01/22 01:32:23;;;;;;;17.60;16.13;;;;;;;-4.30;73.32;96604.34;5138717;27;20207;-68
2024/01/22 01:34:50;;;;;;;17.30;15.90;;;;;;;-4.31;72.52;96616.19;5138350;27;20187;-68
2024/01/22 01:37:17;;;;;;;16.73;15.30;;;;;;;-4.35;72.71;96607.72;5138461;27;20251;-69
2024/01/22 01:39:44;;;;;;;18.45;16.85;;;;;;;-4.37;73.29;96607.09;5138221;27;20491;-69
2024/01/22 01:42:11;;;;;;;18.25;16.75;;;;;;;-4.35;72.66;96602.31;5136991;27;20199;-68
2024/01/22 01:44:49;;;;;;;19.63;17.83;;;;;;;-4.33;72.95;96602.91;5138396;27;20184;-68
2024/01/22 01:47:17;;;;;;;20.02;18.23;;;;;;;-4.32;72.79;96587.56;5137207;27;20209;-68
2024/01/22 01:49:45;;;;;;;21.30;19.40;;;;;;;-4.36;72.91;96595.25;5137134;27;20195;-68
2024/01/22 01:52:12;;;;;;;21.02;19.10;;;;;;;-4.33;72.54;96591.31;5137215;27;20230;-68
2024/01/22 01:54:40;;;;;;;21.50;19.58;;;;;;;-4.33;72.82;96594.81;5138146;27;20232;-68
2024/01/22 01:57:08;;;;;;;21.42;19.52;;;;;;;-4.42;72.28;96590.78;5137980;27;20271;-68
2024/01/22 01:59:35;;;;;;;22.35;20.25;;;;;;;-4.43;73.35;96589.13;5137055;27;20224;-68
2024/01/22 02:02:02;;;;;;;23.75;21.65;;;;;;;-4.43;72.92;96589.97;5137789;27;20234;-68
2024/01/22 02:04:31;;;;;;;24.50;22.27;;;;;;;-4.41;72.80;96587.84;5136886;27;20213;-68
2024/01/22 02:06:58;;;;;;;25.17;22.88;;;;;;;-4.40;72.87;96594.88;5137334;27;20240;-68
2024/01/22 02:09:47;;;;;;;24.13;21.88;;;;;;;-4.42;72.00;96593.47;5137218;27;20230;-68
2024/01/22 02:12:14;;;;;;;25.90;23.50;;;;;;;-4.50;72.11;96597.28;5136517;27;20297;-68
2024/01/22 02:14:44;;;;;;;26.08;23.52;;;;;;;-4.70;72.40;96605.50;5137440;27;20183;-68
2024/01/22 02:17:10;;;;;;;25.38;22.98;;;;;;;-4.74;72.72;96598.09;5137494;27;20191;-67
2024/01/22 02:19:40;;;;;;;26.02;23.48;;;;;;;-4.77;72.95;96593.97;5137151;27;20221;-68
2024/01/22 02:22:08;;;;;;;24.30;22.02;;;;;;;-4.82;73.21;96596.50;5137237;27;20206;-68
2024/01/22 02:24:37;;;;;;;27.10;24.55;;;;;;;-4.85;72.95;96600.44;5136084;27;20636;-68
2024/01/22 02:27:04;;;;;;;26.85;24.42;;;;;;;-4.84;73.34;96598.56;5137176;27;20206;-68
2024/01/22 02:29:31;;;;;;;27.85;25.25;;;;;;;-4.76;73.56;96592.09;5135727;27;20226;-68
2024/01/22 02:31:58;;;;;;;26.73;24.02;;;;;;;-4.77;73.39;96591.28;5136825;27;20249;-68
2024/01/22 02:34:26;;;;;;;27.60;25.00;;;;;;;-4.75;72.93;96580.31;5137354;27;20195;-68
2024/01/22 02:36:56;;;;;;;27.63;24.92;;;;;;;-4.76;72.70;96592.91;5136696;27;20237;-68
2024/01/22 02:39:26;;;;;;;27.13;24.42;;;;;;;-4.74;73.03;96585.47;5135905;27;20195;-68
2024/01/22 02:41:55;;;;;;;27.52;24.95;;;;;;;-4.72;72.73;96582.53;5136919;27;20190;-68
2024/01/22 02:44:22;;;;;;;26.73;24.13;;;;;;;-4.73;72.91;96578.19;5137188;27;20179;-69
2024/01/22 02:46:54;;;;;;;26.75;24.15;;;;;;;-4.68;73.58;96583.78;5135979;27;20206;-68
2024/01/22 02:49:21;;;;;;;28.55;25.70;;;;;;;-4.68;73.11;96581.06;5136160;27;20198;-68
2024/01/22 02:51:48;;;;;;;27.58;24.98;;;;;;;-4.77;73.32;96579.69;5136434;27;20213;-69
2024/01/22 02:54:15;;;;;;;27.85;25.15;;;;;;;-4.87;73.40;96570.22;5135537;27;20231;-68
2024/01/22 02:56:42;;;;;;;31.17;27.98;;;;;;;-4.84;73.56;96577.03;5135977;27;20190;-68
2024/01/22 02:59:15;;;;;;;32.13;28.90;;;;;;;-4.81;73.46;96573.91;5136745;27;20202;-68
2024/01/22 03:01:42;;;;;;;31.40;28.30;;;;;;;-4.85;73.72;96581.59;5136374;27;20642;-67
2024/01/22 03:04:09;;;;;;;32.45;29.25;;;;;;;-4.84;73.43;96583.25;5136434;27;20206;-68
2024/01/22 03:06:39;;;;;;;31.92;28.73;;;;;;;-4.80;73.34;96580.13;5136754;27;20195;-68
2024/01/22 03:09:07;;;;;;;33.67;30.33;;;;;;;-4.84;73.61;96571.66;5136233;27;20191;-68
2024/01/22 03:11:36;;;;;;;34.25;30.88;;;;;;;-4.84;73.00;96583.25;5136517;27;20206;-68
2024/01/22 03:14:07;;;;;;;34.03;30.63;;;;;;;-4.86;73.05;96585.34;5135538;27;20195;-68
2024/01/22 03:16:35;;;;;;;32.40;29.30;;;;;;;-4.92;73.08;96580.81;5136327;27;20196;-68
2024/01/22 03:19:03;;;;;;;34.17;30.98;;;;;;;-4.86;73.86;96579.97;5135695;27;20599;-69
2024/01/22 03:21:34;;;;;;;33.53;30.23;;;;;;;-4.87;73.82;96582.84;5136631;27;20175;-69
2024/01/22 03:24:01;;;;;;;33.72;30.48;;;;;;;-4.85;73.17;96589.69;5136311;27;20179;-68
2024/01/22 03:26:29;;;;;;;35.55;32.13;;;;;;;-4.77;74.10;96585.06;5135576;27;20530;-68
2024/01/22 03:28:56;;;;;;;35.47;31.88;;;;;;;-4.72;73.80;96587.91;5135222;28;20242;-68
2024/01/22 03:31:24;;;;;;;36.33;32.72;;;;;;;-4.77;73.41;96596.66;5135136;28;20248;-69
2024/01/22 03:33:55;;;;;;;35.45;31.88;;;;;;;-4.76;73.75;96598.28;5136226;27;20187;-68
2024/01/22 03:36:23;;;;;;;34.28;30.88;;;;;;;-4.74;73.91;96595.41;5135881;28;20199;-68
2024/01/22 03:38:50;;;;;;;34.75;31.25;;;;;;;-4.73;73.18;96594.34;5136070;27;20191;-68
2024/01/22 03:41:17;;;;;;;34.20;30.73;;;;;;;-4.73;73.35;96600.56;5138678;27;20221;-68
2024/01/22 03:43:46;;;;;;;35.67;32.10;;;;;;;-4.69;73.33;96601.75;5139951;27;20194;-68
2024/01/22 03:46:15;;;;;;;33.67;30.40;;;;;;;-4.67;73.11;96598.88;5140078;27;20179;-68
2024/01/22 03:48:43;;;;;;;35.22;31.77;;;;;;;-4.73;73.31;96594.34;5140602;27;20187;-68
2024/01/22 03:51:12;;;;;;;35.22;31.73;;;;;;;-4.73;73.39;96595.16;5140752;27;20210;-68
2024/01/22 03:53:39;;;;;;;36.47;32.80;;;;;;;-4.76;73.70;96590.22;5139903;27;20210;-68
2024/01/22 03:56:08;;;;;;;36.33;32.60;;;;;;;-4.75;73.54;96588.38;5140408;27;20198;-68
2024/01/22 03:58:35;;;;;;;37.70;33.85;;;;;;;-4.81;73.24;96600.00;5139269;27;20263;-69
2024/01/22 04:01:02;;;;;;;40.45;36.40;;;;;;;-4.78;73.33;96595.00;5139366;27;20247;-68
2024/01/22 04:03:32;;;;;;;43.38;38.95;;;;;;;-4.75;73.89;96596.47;5140922;27;20275;-70
2024/01/22 04:06:01;;;;;;;42.83;38.42;;;;;;;-4.81;73.34;96590.06;5140010;27;20220;-71
2024/01/22 04:08:30;;;;;;;42.33;37.85;;;;;;;-4.80;73.27;96601.66;5139865;27;20179;-70
2024/01/22 04:11:00;;;;;;;41.15;36.92;;;;;;;-4.82;73.55;96599.19;5139825;27;20199;-70
2024/01/22 04:13:27;;;;;;;41.00;36.90;;;;;;;-4.82;73.38;96595.69;5139271;27;20203;-70
2024/01/22 04:15:54;;;;;;;39.53;35.75;;;;;;;-4.81;73.59;96595.44;5138958;27;20183;-70
2024/01/22 04:18:21;;;;;;;41.92;37.53;;;;;;;-4.73;73.35;96597.88;5139342;27;20199;-70
2024/01/22 04:20:48;;;;;;;40.95;36.75;;;;;;;-4.75;73.20;96591.88;5139024;27;20240;-70
2024/01/22 04:23:15;;;;;;;40.60;36.50;;;;;;;-4.76;72.83;96597.47;5140023;27;20183;-70
2024/01/22 04:25:44;;;;;;;41.50;37.30;;;;;;;-4.77;73.55;96595.84;5138453;27;20199;-70
2024/01/22 04:28:10;;;;;;;42.75;38.45;;;;;;;-4.73;72.70;96600.56;5139586;27;20227;-70
2024/01/22 04:30:39;;;;;;;41.95;37.75;;;;;;;-4.86;72.91;96589.91;5139201;27;20183;-70
2024/01/22 04:33:09;;;;;;;41.50;37.40;;;;;;;-4.94;72.77;96582.94;5139342;27;20248;-70
2024/01/22 04:35:36;;;;;;;40.50;36.47;;;;;;;-4.99;73.54;96587.31;5139036;27;20203;-70
2024/01/22 04:38:03;;;;;;;41.65;37.38;;;;;;;-5.00;73.96;96591.03;5138537;27;20571;-70
2024/01/22 04:40:30;;;;;;;42.47;38.28;;;;;;;-4.92;73.65;96588.91;5138802;27;20226;-71
2024/01/22 04:43:03;;;;;;;42.28;38.10;;;;;;;-4.95;73.32;96592.03;5138975;27;20677;-70
2024/01/22 04:45:33;;;;;;;41.53;37.55;;;;;;;-4.90;72.74;96589.53;5138931;27;20215;-70
2024/01/22 04:48:01;;;;;;;41.90;37.80;;;;;;;-4.91;72.43;96598.63;5138682;27;20293;-74
2024/01/22 04:50:30;;;;;;;40.25;36.15;;;;;;;-5.02;72.56;96599.31;5138543;27;20232;-72
2024/01/22 04:52:57;;;;;;;40.15;36.25;;;;;;;-4.97;72.58;96598.69;5139126;27;20191;-71
2024/01/22 04:55:26;;;;;;;40.55;36.45;;;;;;;-4.99;73.01;96596.19;5138208;27;20207;-71
2024/01/22 04:57:53;;;;;;;40.17;36.33;;;;;;;-4.95;73.25;96600.09;5138376;27;20235;-69
2024/01/22 05:00:26;;;;;;;38.78;35.08;;;;;;;-4.83;73.29;96600.22;5139173;27;20212;-69
2024/01/22 05:02:53;;;;;;;37.67;33.97;;;;;;;-4.76;73.11;96606.38;5139526;27;20266;-70
2024/01/22 05:05:21;;;;;;;37.08;33.58;;;;;;;-4.79;72.46;96609.53;5137893;27;20218;-72
2024/01/22 05:07:48;;;;;;;42.50;38.50;;;;;;;-4.83;72.98;96605.59;5138460;27;20199;-73
2024/01/22 05:10:19;;;;;;;37.08;33.67;;;;;;;-4.90;72.53;96602.16;5138392;27;20203;-71
2024/01/22 05:12:46;;;;;;;37.22;33.70;;;;;;;-4.92;73.01;96605.06;5137840;27;20238;-68
2024/01/22 05:15:15;;;;;;;35.63;32.30;;;;;;;-4.99;73.25;96608.84;5137824;27;20192;-71
2024/01/22 05:17:46;;;;;;;38.83;35.13;;;;;;;-4.93;73.45;96608.78;5138304;27;20652;-71
2024/01/22 05:20:15;;;;;;;37.78;34.30;;;;;;;-4.91;73.27;96613.94;5137679;27;20615;-71
2024/01/22 05:22:44;;;;;;;36.28;32.88;;;;;;;-4.88;73.41;96608.94;5138261;27;20186;-71
2024/01/22 05:25:13;;;;;;;37.50;33.90;;;;;;;-4.88;73.42;96613.50;5138332;27;20209;-71
2024/01/22 05:27:43;;;;;;;38.40;34.80;;;;;;;-4.81;73.13;96610.78;5137333;27;20256;-71
2024/01/22 05:30:11;;;;;;;37.40;33.90;;;;;;;-4.84;72.84;96609.34;5138210;27;20194;-71
2024/01/22 05:32:42;;;;;;;38.75;35.03;;;;;;;-4.88;73.51;96608.13;5137779;27;20207;-71
2024/01/22 05:35:12;;;;;;;36.30;32.90;;;;;;;-4.96;72.64;96609.22;5138502;27;20191;-71
2024/01/22 05:37:41;;;;;;;37.42;33.83;;;;;;;-4.99;73.29;96606.97;5137754;27;20414;-72
2024/01/22 05:40:13;;;;;;;37.60;34.00;;;;;;;-4.91;73.37;96611.25;5137838;27;20187;-72
2024/01/22 05:42:43;;;;;;;36.35;33.08;;;;;;;-4.90;73.04;96610.22;5138438;27;20179;-73
2024/01/22 05:45:14;;;;;;;38.78;35.08;;;;;;;-4.89;72.74;96603.81;5138394;27;20187;-73
2024/01/22 05:47:41;;;;;;;37.63;34.13;;;;;;;-5.00;72.98;96602.63;5138815;27;20198;-73
2024/01/22 05:50:10;;;;;;;37.97;34.47;;;;;;;-5.08;73.18;96602.91;5137656;27;20199;-73
2024/01/22 05:52:41;;;;;;;36.65;33.30;;;;;;;-5.12;73.19;96601.66;5137551;27;20203;-73
2024/01/22 05:55:09;;;;;;;36.40;33.00;;;;;;;-5.09;73.57;96599.34;5138452;27;20235;-73
2024/01/22 05:57:36;;;;;;;37.22;33.72;;;;;;;-5.01;74.00;96603.69;5137099;27;20207;-72
2024/01/22 06:00:09;;;;;;;38.45;34.63;;;;;;;-5.03;73.84;96611.13;5136896;27;20192;-72
2024/01/22 06:02:36;;;;;;;37.50;34.00;;;;;;;-5.14;73.04;96609.97;5136984;27;20558;-72
2024/01/22 06:05:05;;;;;;;37.97;34.38;;;;;;;-5.15;74.12;96611.00;5137419;27;20183;-72
2024/01/22 06:07:33;;;;;;;37.60;34.10;;;;;;;-5.11;74.03;96619.47;5135291;27;20203;-72
2024/01/22 06:10:05;;;;;;;35.03;31.83;;;;;;;-5.12;73.25;96615.09;5137543;27;20629;-73
2024/01/22 06:12:32;;;;;;;35.75;32.45;;;;;;;-5.09;73.44;96620.88;5138184;27;20249;-72
2024/01/22 06:15:03;;;;;;;37.38;33.97;;;;;;;-5.04;72.98;96628.31;5137509;27;20202;-72
2024/01/22 06:17:31;;;;;;;38.13;34.63;;;;;;;-5.01;73.37;96627.03;5136202;27;20602;-72
2024/01/22 06:20:00;;;;;;;34.53;31.48;;;;;;;-4.99;72.66;96627.66;5137258;27;20187;-72
2024/01/22 06:22:28;;;;;;;33.67;30.75;;;;;;;-4.99;72.46;96631.19;5137125;27;20519;-72
2024/01/22 06:24:55;;;;;;;35.00;31.83;;;;;;;-4.99;72.81;96627.66;5136087;27;20251;-72
2024/01/22 06:27:26;;;;;;;34.88;31.58;;;;;;;-4.96;72.27;96632.63;5136504;27;20202;-72
2024/01/22 06:29:56;;;;;;;34.28;31.15;;;;;;;-4.97;72.83;96633.66;5136252;27;20238;-72
2024/01/22 06:32:24;;;;;;;36.05;32.85;;;;;;;-5.02;71.93;96625.41;5136470;27;20264;-72
2024/01/22 06:34:55;;;;;;;34.83;31.70;;;;;;;-5.01;72.92;96629.75;5135917;27;20191;-72
2024/01/22 06:37:24;;;;;;;35.25;31.95;;;;;;;-5.07;72.33;96625.25;5136559;27;20204;-73
2024/01/22 06:39:51;;;;;;;28.83;26.25;;;;;;;-5.02;72.85;96630.78;5137080;27;20183;-73
2024/01/22 06:42:18;;;;;;;22.45;20.27;;;;;;;-4.98;73.92;96632.81;5137276;27;20200;-72
2024/01/22 06:44:47;;;;;;;22.90;20.55;;;;;;;-4.82;73.67;96638.75;5136332;27;20214;-72
2024/01/22 06:47:13;;;;;;;24.98;22.40;;;;;;;-4.55;74.38;96636.66;5136550;27;20198;-72
2024/01/22 06:49:41;;;;;;;25.05;22.55;;;;;;;-4.36;74.12;96633.81;5135695;27;20226;-72
2024/01/22 06:52:07;;;;;;;27.48;25.00;;;;;;;-4.36;73.25;96639.22;5136775;27;20203;-72
2024/01/22 06:54:37;;;;;;;28.25;25.75;;;;;;;-4.29;73.92;96633.75;5137484;27;20207;-72
2024/01/22 06:57:04;;;;;;;26.48;24.15;;;;;;;-4.28;72.73;96629.22;5136488;27;20205;-72
2024/01/22 06:59:31;;;;;;;26.33;23.92;;;;;;;-4.27;72.96;96638.94;5136143;27;20191;-72
2024/01/22 07:02:01;;;;;;;26.75;24.35;;;;;;;-4.27;72.67;96645.13;5136347;27;20626;-72
2024/01/22 07:04:28;;;;;;;32.75;29.75;;;;;;;-4.35;72.60;96658.91;5136566;27;20191;-72
2024/01/22 07:06:56;;;;;;;31.38;28.35;;;;;;;-4.43;72.62;96656.44;5136280;27;20294;-73
2024/01/22 07:09:27;;;;;;;29.02;26.30;;;;;;;-4.38;72.57;96660.16;5136589;27;20198;-72
2024/01/22 07:11:55;;;;;;;27.05;24.55;;;;;;;-4.46;72.40;96649.66;5135669;27;20644;-72
2024/01/22 07:14:23;;;;;;;27.30;24.90;;;;;;;-4.46;71.90;96657.75;5134818;27;20210;-72
2024/01/22 07:16:51;;;;;;;27.77;25.33;;;;;;;-4.47;72.71;96653.38;5135798;27;20201;-72
2024/01/22 07:19:22;;;;;;;26.33;24.02;;;;;;;-4.46;72.18;96649.66;5136002;27;20202;-72
2024/01/22 07:21:50;;;;;;;26.17;23.88;;;;;;;-4.50;72.29;96658.38;5135593;27;20194;-72
2024/01/22 07:24:18;;;;;;;25.90;23.60;;;;;;;-4.54;71.95;96652.59;5135418;27;20580;-72
2024/01/22 07:26:46;;;;;;;25.17;23.08;;;;;;;-4.53;72.04;96648.88;5136427;27;20215;-72
2024/01/22 07:29:14;;;;;;;25.27;23.08;;;;;;;-4.52;72.07;96658.59;5135278;28;20227;-72
2024/01/22 07:31:42;;;;;;;25.80;23.52;;;;;;;-4.51;72.34;96645.97;5135943;27;20203;-72
2024/01/22 07:34:08;;;;;;;24.98;22.80;;;;;;;-4.48;72.23;96648.22;5136428;27;20187;-72
2024/01/22 07:36:40;;;;;;;25.52;23.25;;;;;;;-4.49;71.61;96642.00;5136827;27;20186;-72
2024/01/22 07:39:07;;;;;;;25.83;23.52;;;;;;;-4.51;72.07;96643.25;5118043;28;20263;-72
2024/01/22 07:41:34;;;;;;;25.65;23.38;;;;;;;-4.52;71.76;96644.31;5135628;28;20227;-72
2024/01/22 07:44:09;;;;;;;26.05;23.65;;;;;;;-4.51;71.45;96641.41;5135548;28;20252;-72
2024/01/22 07:46:36;;;;;;;25.38;22.95;;;;;;;-4.50;71.74;96642.22;5135334;28;20301;-73
2024/01/22 07:49:03;;;;;;;26.38;24.08;;;;;;;-4.45;72.31;96639.69;5135427;28;20203;-73
2024/01/22 07:51:31;;;;;;;27.45;25.05;;;;;;;-4.45;72.27;96634.31;5135411;28;20187;-73
2024/01/22 07:54:02;;;;;;;24.85;22.65;;;;;;;-4.43;71.96;96637.59;5134516;28;20255;-74
2024/01/22 07:56:33;;;;;;;26.38;24.08;;;;;;;-4.41;71.97;96632.81;5136009;28;20259;-73
2024/01/22 07:59:00;;;;;;;27.33;24.92;;;;;;;-4.42;72.02;96632.00;5135363;28;20195;-73
2024/01/22 08:01:27;;;;;;;26.88;24.38;;;;;;;-4.38;71.80;96630.53;5136234;27;20236;-73
2024/01/22 08:03:57;;;;;;;27.95;25.45;;;;;;;-4.40;72.32;96631.78;5135239;28;20255;-73
2024/01/22 08:06:25;;;;;;;27.63;25.02;;;;;;;-4.34;72.22;96627.38;5135705;27;20187;-72
2024/01/22 08:08:52;;;;;;;24.23;22.10;;;;;;;-4.33;72.17;96623.63;5136206;27;20180;-73
2024/01/22 08:11:21;;;;;;;24.60;22.40;;;;;;;-4.29;71.59;96625.66;5134953;28;20264;-74
2024/01/22 08:13:48;;;;;;;24.90;22.70;;;;;;;-4.28;71.55;96613.88;5134712;28;20260;-73
2024/01/22 08:16:19;;;;;;;25.85;23.55;;;;;;;-4.26;71.34;96617.13;5134926;28;20251;-72
2024/01/22 08:18:47;;;;;;;24.77;22.58;;;;;;;-4.31;70.97;96605.41;5135597;28;20194;-72
2024/01/22 08:21:14;;;;;;;25.20;22.90;;;;;;;-4.27;70.99;96610.13;5134947;28;20195;-73
2024/01/22 08:23:44;;;;;;;24.77;22.58;;;;;;;-4.18;71.34;96605.25;5135486;28;20191;-73
2024/01/22 08:26:12;;;;;;;25.33;23.05;;;;;;;-4.13;71.72;96600.03;5136258;27;20494;-72
2024/01/22 08:28:44;;;;;;;27.67;24.98;;;;;;;-4.16;71.42;96609.38;5138594;27;20299;-72
2024/01/22 08:31:12;;;;;;;25.88;23.58;;;;;;;-4.17;70.53;96612.31;5138891;27;20226;-73
2024/01/22 08:33:40;;;;;;;24.45;22.27;;;;;;;-4.24;70.07;96625.84;5139860;27;20230;-73
2024/01/22 08:36:08;;;;;;;24.33;22.23;;;;;;;-4.23;70.04;96621.28;5138693;27;20195;-72
2024/01/22 08:38:35;;;;;;;25.58;23.27;;;;;;;-4.22;70.41;96621.03;5138908;27;20255;-72
2024/01/22 08:41:04;;;;;;;26.63;24.27;;;;;;;-4.11;70.71;96624.88;5139940;27;20211;-73
2024/01/22 08:43:31;;;;;;;26.65;24.13;;;;;;;-3.99;71.35;96620.41;5139360;27;20183;-72
2024/01/22 08:46:03;;;;;;;24.90;22.60;;;;;;;-3.99;70.99;96619.59;5138678;27;20595;-72
2024/01/22 08:48:32;;;;;;;25.60;23.23;;;;;;;-4.06;70.13;96614.28;5138298;27;20216;-73
2024/01/22 08:51:01;;;;;;;25.65;23.35;;;;;;;-4.00;70.71;96615.22;5132946;27;20215;-73
2024/01/22 08:53:31;;;;;;;25.98;23.67;;;;;;;-3.86;71.02;96605.97;5138827;27;20539;-73
2024/01/22 08:55:59;;;;;;;26.67;24.27;;;;;;;-3.84;70.01;96611.16;5138831;27;20187;-73
2024/01/22 08:58:30;;;;;;;26.67;24.17;;;;;;;-3.78;70.07;96610.22;5138553;27;20195;-73
2024/01/22 09:00:57;;;;;;;29.48;26.77;;;;;;;-3.73;70.19;96624.69;5137975;27;20240;-72
2024/01/22 09:03:27;;;;;;;32.53;29.33;;;;;;;-3.73;70.11;96624.69;5138613;27;20222;-72
2024/01/22 09:05:56;;;;;;;35.38;31.98;;;;;;;-3.65;70.21;96610.91;5138866;27;20191;-72
2024/01/22 09:08:23;;;;;;;36.30;32.88;;;;;;;-3.57;70.86;96611.66;5137688;27;20209;-72
2024/01/22 09:10:50;;;;;;;37.40;33.88;;;;;;;-3.54;70.50;96605.81;5138389;27;20282;-72
2024/01/22 09:13:19;;;;;;;35.92;32.58;;;;;;;-3.48;70.19;96602.22;5137828;27;20233;-72
2024/01/22 09:15:49;;;;;;;38.45;34.65;;;;;;;-3.46;70.57;96600.91;5138288;27;20197;-72
2024/01/22 09:18:17;;;;;;;38.53;34.72;;;;;;;-3.42;70.52;96598.59;5137392;27;20194;-72
2024/01/22 09:20:46;;;;;;;40.45;36.50;;;;;;;-3.41;70.29;96587.59;5138257;27;20209;-72
2024/01/22 09:23:12;;;;;;;37.85;34.22;;;;;;;-3.44;69.78;96588.03;5138291;27;20179;-72
2024/01/22 09:25:41;;;;;;;50.63;36.08;;;;;;;-3.50;69.90;96590.81;5138162;27;20180;-72
2024/01/22 09:28:10;;;;;;;38.95;35.13;;;;;;;-3.45;70.51;96597.19;5137783;27;20227;-72
2024/01/22 09:30:39;;;;;;;38.42;34.53;;;;;;;-3.45;70.92;96597.19;5137143;27;20191;-72
2024/01/22 09:33:09;;;;;;;39.08;35.20;;;;;;;-3.40;70.12;96596.50;5137691;27;20297;-72
2024/01/22 09:35:41;;;;;;;41.45;37.20;;;;;;;-3.41;70.17;96602.94;5137715;27;20633;-73
2024/01/22 09:38:14;;;;;;;40.78;36.40;;;;;;;-3.33;70.57;96605.31;5137346;27;20187;-73
2024/01/22 09:40:44;;;;;;;41.90;37.63;;;;;;;-3.32;70.72;96598.06;5138366;27;20219;-72
2024/01/22 09:43:11;;;;;;;41.80;37.80;;;;;;;-3.24;70.51;96600.44;5137788;27;20259;-72
2024/01/22 09:45:41;;;;;;;39.50;35.38;;;;;;;-3.23;69.67;96602.06;5137883;27;20588;-73
2024/01/22 09:48:10;;;;;;;41.83;37.42;;;;;;;-3.27;69.51;96592.78;5138218;27;20187;-73
2024/01/22 09:50:37;;;;;;;42.08;37.83;;;;;;;-3.23;70.36;96600.22;5138085;27;20255;-73
2024/01/22 09:53:11;;;;;;;41.72;37.60;;;;;;;-3.10;70.65;96591.09;5137244;27;20211;-72
2024/01/22 09:55:40;;;;;;;47.28;40.33;;;;;;;-3.04;70.28;96589.38;5137990;27;20198;-72
2024/01/22 09:58:09;;;;;;;43.65;39.30;;;;;;;-3.03;70.21;96582.91;5136843;27;20225;-73
2024/01/22 10:00:36;;;;;;;59.60;41.97;;;;;;;-2.98;69.81;96583.03;5137068;27;20597;-72
2024/01/22 10:03:04;;;;;;;44.50;39.72;;;;;;;-2.98;69.58;96574.94;5138084;27;20247;-72
2024/01/22 10:05:31;;;;;;;44.20;39.67;;;;;;;-2.97;69.72;96574.72;5137464;27;20218;-72
2024/01/22 10:07:59;;;;;;;44.53;39.97;;;;;;;-2.82;69.80;96568.88;5136549;27;20195;-72
2024/01/22 10:10:28;;;;;;;44.92;40.63;;;;;;;-2.62;69.85;96573.94;5137327;27;20209;-72
2024/01/22 10:13:04;;;;;;;42.50;38.20;;;;;;;-2.39;69.70;96554.25;5137402;27;20214;-72
2024/01/22 10:15:33;;;;;;;43.58;39.17;;;;;;;-2.08;69.52;96558.44;5136599;27;20198;-72
2024/01/22 10:18:14;;;;;;;43.80;39.60;;;;;;;-1.81;69.23;96547.97;5137497;27;20202;-72
2024/01/22 10:20:42;;;;;;;44.33;39.92;;;;;;;-1.57;68.16;96554.13;5136884;27;20566;-72
2024/01/22 10:23:10;;;;;;;44.95;40.35;;;;;;;-1.48;66.79;96550.00;5136566;27;20216;-72
2024/01/22 10:25:40;;;;;;;44.92;40.28;;;;;;;-1.25;67.71;96543.66;5137317;27;20202;-72
2024/01/22 10:28:16;;;;;;;46.03;41.38;;;;;;;-0.97;67.77;96552.84;5137474;27;20299;-72
2024/01/22 10:30:44;;;;;;;47.33;42.70;;;;;;;-0.81;66.33;96551.19;5136140;27;20290;-72
2024/01/22 10:33:14;;;;;;;50.33;45.08;;;;;;;-0.76;66.00;96545.88;5136157;27;20223;-71
2024/01/22 10:35:50;;;;;;;54.33;48.85;;;;;;;-0.84;65.70;96546.28;5137012;27;20198;-72
2024/01/22 10:38:20;;;;;;;52.40;47.08;;;;;;;-0.89;65.76;96541.59;5135839;27;20198;-72
2024/01/22 10:40:51;;;;;;;56.03;50.45;;;;;;;-0.82;65.82;96536.03;5136618;27;20553;-72
2024/01/22 10:43:26;;;;;;;56.58;50.80;;;;;;;-0.64;66.14;96532.25;5137604;27;20267;-72
2024/01/22 10:45:54;;;;;;;55.38;49.67;;;;;;;-0.44;66.73;96529.84;5136246;27;20199;-72
2024/01/22 10:48:28;;;;;;;53.55;47.95;;;;;;;-0.33;65.82;96523.53;5135858;27;20206;-72
2024/01/22 10:50:57;;;;;;;47.22;42.53;;;;;;;-0.22;65.59;96526.38;5135906;27;20225;-72
2024/01/22 10:53:28;;;;;;;45.22;40.63;;;;;;;-0.05;64.73;96510.91;5136083;27;20211;-72
2024/01/22 10:56:01;;;;;;;45.78;41.17;;;;;;;0.11;63.96;96493.78;5136464;27;20198;-72
2024/01/22 10:58:31;;;;;;;46.05;41.45;;;;;;;0.29;64.36;96489.09;5136779;27;20186;-72
2024/01/22 11:01:02;;;;;;;49.35;44.35;;;;;;;0.41;64.15;96496.03;5136173;27;20198;-72
2024/01/22 11:03:30;;;;;;;49.95;44.70;;;;;;;0.46;63.43;96489.84;5135444;27;20199;-72
2024/01/22 11:06:00;;;;;;;46.50;41.95;;;;;;;0.47;63.69;96489.59;5135690;27;20200;-72
2024/01/22 11:08:30;;;;;;;49.20;44.20;;;;;;;0.50;63.60;96499.09;5135319;27;20205;-72
2024/01/22 11:10:59;;;;;;;49.28;44.17;;;;;;;0.54;61.60;96497.53;5135356;27;20203;-72
2024/01/22 11:13:30;;;;;;;49.50;44.40;;;;;;;0.63;62.34;96495.19;5134585;27;20218;-72
2024/01/22 11:16:01;;;;;;;60.22;54.28;;;;;;;0.71;62.11;96492.00;5136479;27;20194;-72
2024/01/22 11:18:28;;;;;;;59.13;52.88;;;;;;;0.80;62.73;96485.06;5135205;27;20277;-71
2024/01/22 11:21:20;;;;;;;60.80;54.60;;;;;;;0.88;61.36;96487.31;5135692;27;20530;-71
2024/01/22 11:24:12;;;;;;;50.92;42.45;;;;;;;0.78;61.63;96484.47;5135131;27;20183;-70